Time;durP1;ratioP1;P1;durP2;ratioP2;P2;SDS_P1;SDS_P2;PMS_P1;PMS_P2;Temp;Humidity;BMP_temperature;BMP_pressure;BME280_temperature;BME280_humidity;BME280_pressure;Samples;Min_cycle;Max_cycle;Signal;HPM_P1;HPM_P2
2022/02/19 00:00:55;;;;;;;18.70;8.25;;;4.10;74.40;;;;;;5118355;28;20426;-41
2022/02/19 00:03:21;;;;;;;14.98;8.07;;;4.00;74.50;;;;;;5117772;28;20027;-42
2022/02/19 00:05:46;;;;;;;13.48;7.45;;;4.00;74.70;;;;;;5118224;28;20034;-36
2022/02/19 00:08:13;;;;;;;12.30;8.23;;;3.90;74.90;;;;;;5117363;28;20051;-40
2022/02/19 00:10:43;;;;;;;17.65;6.95;;;3.80;74.90;;;;;;5118148;28;20288;-42
2022/02/19 00:13:09;;;;;;;16.15;8.10;;;3.80;75.20;;;;;;5117384;28;20078;-36
2022/02/19 00:15:35;;;;;;;15.57;8.10;;;3.80;75.40;;;;;;5118230;28;20395;-36
2022/02/19 00:18:01;;;;;;;16.33;7.50;;;3.70;75.50;;;;;;5117316;28;20047;-37
2022/02/19 00:20:27;;;;;;;15.90;7.90;;;3.70;75.60;;;;;;5117803;28;20074;-36
2022/02/19 00:22:54;;;;;;;14.13;7.40;;;3.60;75.70;;;;;;5117351;27;20022;-41
2022/02/19 00:25:20;;;;;;;17.98;7.75;;;3.60;75.80;;;;;;5117915;28;20104;-41
2022/02/19 00:27:46;;;;;;;15.02;8.82;;;3.60;75.90;;;;;;5117490;28;20032;-36
2022/02/19 00:30:12;;;;;;;18.67;8.57;;;3.60;76.00;;;;;;5117567;28;20054;-36
2022/02/19 00:32:38;;;;;;;16.58;7.85;;;3.60;76.10;;;;;;5117077;28;20517;-43
2022/02/19 00:35:04;;;;;;;16.65;8.20;;;3.60;76.10;;;;;;5117596;28;20102;-36
2022/02/19 00:37:30;;;;;;;18.13;8.15;;;3.50;76.00;;;;;;5117398;28;20024;-36
2022/02/19 00:39:56;;;;;;;17.25;8.50;;;3.50;76.10;;;;;;5117024;28;20483;-41
2022/02/19 00:42:22;;;;;;;13.45;8.30;;;3.50;76.20;;;;;;5117329;28;20061;-42
2022/02/19 00:44:48;;;;;;;19.52;9.15;;;3.50;76.20;;;;;;5117234;28;20035;-41
2022/02/19 00:47:14;;;;;;;15.80;8.38;;;3.50;76.30;;;;;;5116915;28;20023;-42
2022/02/19 00:49:40;;;;;;;20.33;9.05;;;3.50;76.30;;;;;;5117541;28;20035;-36
2022/02/19 00:52:06;;;;;;;21.40;7.78;;;3.40;76.40;;;;;;5116664;28;20092;-42
2022/02/19 00:54:32;;;;;;;17.35;8.85;;;3.40;76.50;;;;;;5117265;28;20028;-39
2022/02/19 00:56:57;;;;;;;24.45;8.50;;;3.40;76.50;;;;;;5116944;28;20353;-36
2022/02/19 00:59:23;;;;;;;21.02;8.68;;;3.40;76.60;;;;;;5117261;28;20101;-43
2022/02/19 01:01:49;;;;;;;17.17;8.40;;;3.40;76.60;;;;;;5116782;28;20319;-43
2022/02/19 01:04:14;;;;;;;20.17;8.55;;;3.40;76.70;;;;;;5116877;28;20511;-42
2022/02/19 01:06:40;;;;;;;18.50;8.70;;;3.40;76.70;;;;;;5116545;28;20019;-43
2022/02/19 01:09:06;;;;;;;16.92;8.95;;;3.40;76.70;;;;;;5116625;28;20074;-42
2022/02/19 01:11:32;;;;;;;17.70;8.30;;;3.40;76.70;;;;;;5116894;28;20027;-41
2022/02/19 01:13:57;;;;;;;17.65;8.63;;;3.40;76.70;;;;;;5116219;28;20467;-37
2022/02/19 01:16:23;;;;;;;19.48;8.60;;;3.40;76.80;;;;;;5116842;28;20019;-40
2022/02/19 01:18:49;;;;;;;24.70;9.82;;;3.40;76.90;;;;;;5116471;28;20019;-41
2022/02/19 01:21:19;;;;;;;24.92;10.45;;;3.40;76.90;;;;;;5116187;28;20039;-38
2022/02/19 01:23:45;;;;;;;18.33;9.05;;;3.40;77.00;;;;;;5116662;28;20301;-41
2022/02/19 01:26:10;;;;;;;17.48;10.05;;;3.40;77.00;;;;;;5117048;28;20042;-37
2022/02/19 01:28:37;;;;;;;24.85;11.10;;;3.40;76.90;;;;;;5116670;28;20051;-41
2022/02/19 01:31:02;;;;;;;18.38;9.05;;;3.30;76.80;;;;;;5116847;28;20036;-39
2022/02/19 01:33:28;;;;;;;20.45;9.95;;;3.30;76.90;;;;;;5116621;28;20102;-37
2022/02/19 01:35:54;;;;;;;20.63;9.90;;;3.30;77.00;;;;;;5116920;28;20129;-42
2022/02/19 01:38:19;;;;;;;18.00;9.93;;;3.30;77.20;;;;;;5116148;28;20062;-41
2022/02/19 01:40:45;;;;;;;21.27;10.38;;;3.20;77.10;;;;;;5116585;28;20116;-43
2022/02/19 01:43:11;;;;;;;16.45;10.02;;;3.20;77.10;;;;;;5116245;28;20050;-37
2022/02/19 01:45:38;;;;;;;17.05;9.05;;;3.20;77.20;;;;;;5116716;28;20047;-42
2022/02/19 01:48:04;;;;;;;18.48;9.80;;;3.20;77.30;;;;;;5116423;28;20024;-37
2022/02/19 01:50:30;;;;;;;22.40;9.77;;;3.20;77.20;;;;;;5116619;28;20030;-36
2022/02/19 01:52:56;;;;;;;20.23;10.43;;;3.10;77.30;;;;;;5116270;28;20023;-39
2022/02/19 01:55:21;;;;;;;19.77;10.38;;;3.10;77.30;;;;;;5116580;28;20415;-37
2022/02/19 01:57:48;;;;;;;17.17;9.63;;;3.10;77.40;;;;;;5115887;28;20107;-37
2022/02/19 02:00:14;;;;;;;18.02;9.88;;;3.00;77.50;;;;;;5116586;28;20459;-41
2022/02/19 02:02:42;;;;;;;18.88;10.30;;;3.00;77.70;;;;;;5116258;28;20034;-42
2022/02/19 02:05:08;;;;;;;19.27;10.32;;;3.00;77.80;;;;;;5116364;28;20040;-37
2022/02/19 02:07:34;;;;;;;21.27;9.38;;;2.90;77.90;;;;;;5115913;28;20024;-36
2022/02/19 02:10:01;;;;;;;22.02;9.77;;;2.90;78.10;;;;;;5116433;28;20084;-42
2022/02/19 02:12:27;;;;;;;16.80;10.43;;;2.90;78.20;;;;;;5115905;28;20035;-41
2022/02/19 02:14:52;;;;;;;29.10;10.18;;;2.90;78.20;;;;;;5115852;28;20075;-36
2022/02/19 02:17:18;;;;;;;18.33;9.60;;;2.90;78.30;;;;;;5116044;28;20048;-41
2022/02/19 02:19:44;;;;;;;18.80;9.05;;;2.90;78.30;;;;;;5116175;28;20403;-43
2022/02/19 02:22:14;;;;;;;17.02;9.23;;;3.00;78.30;;;;;;5115885;28;20035;-36
2022/02/19 02:24:40;;;;;;;20.73;9.82;;;2.90;78.80;;;;;;5116288;28;20036;-36
2022/02/19 02:27:08;;;;;;;23.45;9.75;;;2.90;78.30;;;;;;5115835;28;20038;-41
2022/02/19 02:29:46;;;;;;;17.05;9.43;;;2.90;78.40;;;;;;5116075;28;20110;-43
2022/02/19 02:32:13;;;;;;;20.75;9.00;;;2.90;78.40;;;;;;5117847;28;20027;-39
2022/02/19 02:34:49;;;;;;;19.73;9.93;;;2.90;78.40;;;;;;5120134;28;20426;-41
2022/02/19 02:37:15;;;;;;;27.20;9.98;;;2.90;78.50;;;;;;5119816;28;20338;-41
2022/02/19 02:39:41;;;;;;;20.70;9.98;;;2.90;78.60;;;;;;5119843;28;20035;-36
2022/02/19 02:42:07;;;;;;;25.88;10.25;;;2.80;78.70;;;;;;5119106;28;20027;-37
2022/02/19 02:44:39;;;;;;;25.58;11.13;;;2.80;78.80;;;;;;5119637;28;20032;-36
2022/02/19 02:47:04;;;;;;;36.95;13.98;;;2.80;79.00;;;;;;5119592;28;20032;-42
2022/02/19 02:49:31;;;;;;;21.50;10.30;;;2.70;79.00;;;;;;5119323;28;20133;-36
2022/02/19 02:51:56;;;;;;;25.58;10.30;;;2.70;79.20;;;;;;5119097;28;20116;-42
2022/02/19 02:54:22;;;;;;;26.40;11.95;;;2.70;79.30;;;;;;5119495;28;20373;-42
2022/02/19 02:56:47;;;;;;;18.35;9.13;;;2.70;79.40;;;;;;5119068;28;20027;-37
2022/02/19 02:59:13;;;;;;;16.45;9.32;;;2.70;79.50;;;;;;5119217;28;20023;-40
2022/02/19 03:01:39;;;;;;;19.50;9.48;;;2.80;79.60;;;;;;5118996;28;20030;-41
2022/02/19 03:04:05;;;;;;;20.48;9.93;;;2.70;79.60;;;;;;5118965;28;20023;-37
2022/02/19 03:06:31;;;;;;;23.50;10.95;;;2.70;79.70;;;;;;5119357;28;20028;-43
2022/02/19 03:08:56;;;;;;;20.15;8.60;;;2.80;79.70;;;;;;5118776;28;20037;-37
2022/02/19 03:11:22;;;;;;;28.90;10.02;;;2.80;79.60;;;;;;5119150;28;20112;-43
2022/02/19 03:13:48;;;;;;;20.60;9.02;;;2.70;79.70;;;;;;5118499;28;20424;-37
2022/02/19 03:16:13;;;;;;;13.73;8.05;;;2.70;79.80;;;;;;5118779;28;20328;-41
2022/02/19 03:18:39;;;;;;;21.90;9.13;;;2.70;80.00;;;;;;5118509;28;20030;-37
2022/02/19 03:21:05;;;;;;;16.42;9.05;;;2.70;80.10;;;;;;5119188;28;20031;-38
2022/02/19 03:23:32;;;;;;;17.05;8.88;;;2.70;80.10;;;;;;5118831;28;20098;-42
2022/02/19 03:25:58;;;;;;;19.80;9.05;;;2.70;80.10;;;;;;5119131;28;20067;-42
2022/02/19 03:28:24;;;;;;;16.15;8.75;;;2.70;80.20;;;;;;5118873;28;20050;-36
2022/02/19 03:30:49;;;;;;;15.52;7.90;;;2.70;80.20;;;;;;5118952;28;20039;-36
2022/02/19 03:33:15;;;;;;;18.60;7.53;;;2.70;80.40;;;;;;5118360;28;20031;-41
2022/02/19 03:35:41;;;;;;;16.60;7.45;;;2.70;80.40;;;;;;5118888;28;20038;-37
2022/02/19 03:38:07;;;;;;;15.55;7.63;;;2.70;80.50;;;;;;5118359;28;20118;-42
2022/02/19 03:40:32;;;;;;;13.43;7.25;;;2.70;80.40;;;;;;5118663;28;20039;-42
2022/02/19 03:43:01;;;;;;;14.00;7.13;;;2.80;80.40;;;;;;5117279;28;20335;-42
2022/02/19 03:45:27;;;;;;;12.32;7.07;;;2.80;80.30;;;;;;5118630;28;20067;-36
2022/02/19 03:47:53;;;;;;;17.52;7.43;;;2.80;80.20;;;;;;5118106;28;20427;-42
2022/02/19 03:50:19;;;;;;;14.80;7.40;;;2.90;80.10;;;;;;5118698;28;20031;-42
2022/02/19 03:52:48;;;;;;;15.50;7.07;;;2.90;79.90;;;;;;5117948;28;20422;-36
2022/02/19 03:55:14;;;;;;;17.70;7.22;;;2.90;79.90;;;;;;5118477;28;20043;-43
2022/02/19 03:57:40;;;;;;;14.35;7.05;;;2.90;79.90;;;;;;5117904;28;20023;-37
2022/02/19 04:00:09;;;;;;;13.65;7.97;;;2.90;79.90;;;;;;5118305;28;20308;-37
2022/02/19 04:02:38;;;;;;;15.60;7.53;;;2.90;79.80;;;;;;5117588;28;20055;-37
2022/02/19 04:05:09;;;;;;;20.08;7.80;;;2.90;79.70;;;;;;5118303;28;20031;-37
2022/02/19 04:07:35;;;;;;;15.75;7.38;;;2.90;79.70;;;;;;5117772;28;20027;-43
2022/02/19 04:10:00;;;;;;;16.40;7.85;;;2.90;79.60;;;;;;5117654;28;20114;-41
2022/02/19 04:12:26;;;;;;;16.15;7.57;;;2.90;79.60;;;;;;5117642;28;20096;-37
2022/02/19 04:14:52;;;;;;;14.88;6.88;;;2.90;79.70;;;;;;5117730;28;20051;-37
2022/02/19 04:17:18;;;;;;;15.70;7.70;;;2.90;79.70;;;;;;5117456;28;20081;-37
2022/02/19 04:19:43;;;;;;;19.63;8.13;;;2.90;79.70;;;;;;5118001;28;20031;-36
2022/02/19 04:22:09;;;;;;;14.52;7.45;;;3.00;79.70;;;;;;5117435;28;20114;-45
2022/02/19 04:24:35;;;;;;;16.50;8.13;;;3.00;79.60;;;;;;5117928;28;20054;-42
2022/02/19 04:27:00;;;;;;;11.20;7.47;;;3.00;79.80;;;;;;5117295;28;20027;-42
2022/02/19 04:29:26;;;;;;;14.52;7.68;;;3.00;79.80;;;;;;5117510;28;20038;-43
2022/02/19 04:31:55;;;;;;;17.17;7.70;;;3.10;79.80;;;;;;5117345;28;20137;-36
2022/02/19 04:34:23;;;;;;;16.10;7.47;;;3.10;79.60;;;;;;5117452;28;20030;-41
2022/02/19 04:36:50;;;;;;;15.20;7.55;;;3.20;79.50;;;;;;5117127;28;20031;-36
2022/02/19 04:39:19;;;;;;;16.33;7.97;;;3.20;79.40;;;;;;5117323;28;20068;-37
2022/02/19 04:41:46;;;;;;;13.05;7.55;;;3.20;79.30;;;;;;5117160;28;20031;-37
2022/02/19 04:44:11;;;;;;;16.15;8.35;;;3.20;79.20;;;;;;5117052;28;20370;-43
2022/02/19 04:46:37;;;;;;;16.20;8.23;;;3.20;79.20;;;;;;5117242;27;20076;-43
2022/02/19 04:49:03;;;;;;;15.95;7.88;;;3.20;79.70;;;;;;5117142;28;20035;-39
2022/02/19 04:51:29;;;;;;;14.80;7.40;;;3.30;79.10;;;;;;5116957;28;20024;-42
2022/02/19 04:53:55;;;;;;;15.75;7.35;;;3.20;79.00;;;;;;5116644;28;20102;-42
2022/02/19 04:56:21;;;;;;;19.13;8.40;;;3.20;79.00;;;;;;5117251;28;20024;-37
2022/02/19 04:58:47;;;;;;;13.65;7.45;;;3.30;79.10;;;;;;5116761;28;20098;-37
2022/02/19 05:01:13;;;;;;;16.83;8.63;;;3.30;79.10;;;;;;5117257;28;20028;-37
2022/02/19 05:03:39;;;;;;;13.85;7.43;;;3.30;79.00;;;;;;5116874;28;20027;-36
2022/02/19 05:06:05;;;;;;;15.18;7.40;;;3.30;79.00;;;;;;5117222;28;20039;-37
2022/02/19 05:08:31;;;;;;;19.15;7.95;;;3.30;79.00;;;;;;5116627;28;20027;-42
2022/02/19 05:10:57;;;;;;;15.43;7.88;;;3.30;78.90;;;;;;5116558;28;20067;-36
2022/02/19 05:13:22;;;;;;;16.08;7.43;;;3.40;78.80;;;;;;5116572;28;20070;-43
2022/02/19 05:15:48;;;;;;;15.23;7.65;;;3.40;78.70;;;;;;5117026;28;20076;-36
2022/02/19 05:18:14;;;;;;;16.80;7.32;;;3.40;78.50;;;;;;5116296;28;20050;-42
2022/02/19 05:20:41;;;;;;;16.58;7.32;;;3.40;78.50;;;;;;5116541;28;20185;-43
2022/02/19 05:23:07;;;;;;;16.05;7.20;;;3.40;79.20;;;;;;5116445;28;20434;-36
2022/02/19 05:25:33;;;;;;;15.27;7.47;;;3.40;78.60;;;;;;5116766;28;20028;-37
2022/02/19 05:27:59;;;;;;;15.90;6.75;;;3.40;78.50;;;;;;5116492;28;20028;-43
2022/02/19 05:30:25;;;;;;;17.83;8.02;;;3.50;78.50;;;;;;5116602;28;20024;-43
2022/02/19 05:32:51;;;;;;;20.77;7.82;;;3.50;78.40;;;;;;5115606;28;20027;-37
2022/02/19 05:35:17;;;;;;;17.85;8.70;;;3.50;78.30;;;;;;5116844;28;20031;-42
2022/02/19 05:37:43;;;;;;;11.35;7.05;;;3.50;78.20;;;;;;5116332;28;20027;-37
2022/02/19 05:40:09;;;;;;;19.42;7.28;;;3.50;78.10;;;;;;5116588;28;20061;-39
2022/02/19 05:42:35;;;;;;;16.48;7.72;;;3.60;78.20;;;;;;5115496;28;20028;-37
2022/02/19 05:45:01;;;;;;;16.17;7.68;;;3.60;78.10;;;;;;5115523;28;20315;-42
2022/02/19 05:47:27;;;;;;;13.55;7.30;;;3.70;78.20;;;;;;5115971;28;20034;-41
2022/02/19 05:49:52;;;;;;;14.32;7.55;;;3.70;78.10;;;;;;5116374;28;20126;-36
2022/02/19 05:52:18;;;;;;;15.50;7.88;;;3.80;78.00;;;;;;5115865;28;20086;-38
2022/02/19 05:54:44;;;;;;;10.40;6.68;;;3.80;77.70;;;;;;5115659;28;20115;-42
2022/02/19 05:57:10;;;;;;;14.48;7.47;;;3.90;77.60;;;;;;5115905;28;20403;-37
2022/02/19 05:59:36;;;;;;;13.23;6.88;;;3.90;77.30;;;;;;5116151;28;20081;-37
2022/02/19 06:02:02;;;;;;;13.93;6.90;;;3.90;77.10;;;;;;5115238;28;20063;-36
2022/02/19 06:04:28;;;;;;;17.23;6.45;;;4.00;77.00;;;;;;5116076;28;20042;-42
2022/02/19 06:06:54;;;;;;;13.52;6.70;;;4.10;77.00;;;;;;5116768;28;20307;-37
2022/02/19 06:09:20;;;;;;;10.80;6.78;;;4.10;76.60;;;;;;5119931;27;20105;-43
2022/02/19 06:11:46;;;;;;;9.70;5.85;;;4.10;76.50;;;;;;5120128;28;20053;-42
2022/02/19 06:14:13;;;;;;;11.57;6.20;;;4.20;76.50;;;;;;5119739;28;20097;-41
2022/02/19 06:16:38;;;;;;;12.32;6.38;;;4.20;76.30;;;;;;5119427;28;20020;-41
2022/02/19 06:19:04;;;;;;;11.55;5.90;;;4.30;76.20;;;;;;5119959;28;20114;-37
2022/02/19 06:21:30;;;;;;;12.15;6.13;;;4.30;76.00;;;;;;5119369;28;20422;-42
2022/02/19 06:23:55;;;;;;;14.10;6.72;;;4.30;75.80;;;;;;5119625;28;20102;-38
2022/02/19 06:26:21;;;;;;;16.10;7.10;;;4.40;75.70;;;;;;5119634;28;20354;-41
2022/02/19 06:28:47;;;;;;;15.52;6.32;;;4.40;75.70;;;;;;5119066;28;20034;-36
2022/02/19 06:31:13;;;;;;;17.73;9.20;;;4.40;75.50;;;;;;5119943;27;20031;-36
2022/02/19 06:33:39;;;;;;;12.88;6.93;;;4.50;75.30;;;;;;5119212;28;20050;-42
2022/02/19 06:36:05;;;;;;;13.65;7.40;;;4.50;75.10;;;;;;5119634;28;20032;-47
2022/02/19 06:38:31;;;;;;;16.65;8.27;;;4.60;75.10;;;;;;5119239;28;20072;-37
2022/02/19 06:40:56;;;;;;;22.58;8.10;;;4.60;74.90;;;;;;5119155;28;20111;-37
2022/02/19 06:43:22;;;;;;;16.20;8.45;;;4.60;74.70;;;;;;5119253;28;20032;-43
2022/02/19 06:45:48;;;;;;;17.45;9.00;;;4.70;74.60;;;;;;5119551;28;20030;-47
2022/02/19 06:48:13;;;;;;;16.38;7.97;;;4.80;74.40;;;;;;5118998;28;20031;-38
2022/02/19 06:50:39;;;;;;;17.13;7.60;;;4.90;74.10;;;;;;5119384;28;20059;-42
2022/02/19 06:53:05;;;;;;;12.48;6.03;;;4.90;73.80;;;;;;5118979;28;20305;-42
2022/02/19 06:55:30;;;;;;;14.75;6.50;;;4.90;73.30;;;;;;5119090;28;20389;-42
2022/02/19 06:57:57;;;;;;;13.43;7.07;;;4.90;73.10;;;;;;5118679;28;20031;-38
2022/02/19 07:00:23;;;;;;;14.55;6.47;;;5.00;73.20;;;;;;5119098;28;20055;-36
2022/02/19 07:02:48;;;;;;;14.90;6.50;;;5.00;73.00;;;;;;5118899;28;20341;-37
2022/02/19 07:05:14;;;;;;;12.15;5.63;;;5.10;72.90;;;;;;5118539;28;20070;-37
2022/02/19 07:07:40;;;;;;;11.57;5.15;;;5.10;72.20;;;;;;5118346;28;20111;-43
2022/02/19 07:10:06;;;;;;;11.50;4.97;;;5.10;72.10;;;;;;5116338;28;20063;-37
2022/02/19 07:12:33;;;;;;;13.18;5.63;;;5.20;72.10;;;;;;5118103;28;20038;-43
2022/02/19 07:14:58;;;;;;;10.80;4.97;;;5.20;71.60;;;;;;5118489;28;20162;-43
2022/02/19 07:17:24;;;;;;;11.68;5.40;;;5.30;71.20;;;;;;5118324;28;20407;-42
2022/02/19 07:19:50;;;;;;;14.07;5.90;;;5.40;70.80;;;;;;5118364;28;20173;-43
2022/02/19 07:22:16;;;;;;;12.82;5.22;;;5.40;70.30;;;;;;5117681;28;20127;-43
2022/02/19 07:24:42;;;;;;;9.93;5.53;;;5.40;70.00;;;;;;5118273;28;20031;-44
2022/02/19 07:27:08;;;;;;;9.48;5.03;;;5.50;70.00;;;;;;5117998;28;20106;-37
2022/02/19 07:29:35;;;;;;;8.43;4.43;;;5.50;69.30;;;;;;5118589;28;20422;-36
2022/02/19 07:32:00;;;;;;;10.07;4.72;;;5.60;69.30;;;;;;5117161;28;20426;-37
2022/02/19 07:34:26;;;;;;;11.52;4.80;;;5.60;69.10;;;;;;5117267;28;20027;-37
2022/02/19 07:36:52;;;;;;;12.60;4.60;;;5.70;68.60;;;;;;5117732;28;20420;-42
2022/02/19 07:39:17;;;;;;;10.90;5.03;;;5.70;68.10;;;;;;5118191;28;20032;-43
2022/02/19 07:41:43;;;;;;;11.88;4.10;;;5.70;67.80;;;;;;5117602;28;20319;-42
2022/02/19 07:44:09;;;;;;;12.27;4.53;;;5.80;67.60;;;;;;5117998;28;20030;-43
2022/02/19 07:46:35;;;;;;;11.70;4.90;;;5.80;67.50;;;;;;5117899;28;20024;-36
2022/02/19 07:59:57;;;;;;;12.27;6.47;;;5.80;65.70;;;;;;5097072;28;20116;-36
2022/02/19 08:02:23;;;;;;;12.57;4.07;;;5.80;64.90;;;;;;5096961;28;20373;-39
2022/02/19 08:04:48;;;;;;;11.93;5.53;;;5.80;64.50;;;;;;5096837;28;20336;-37
2022/02/19 08:07:14;;;;;;;9.55;3.80;;;5.80;64.10;;;;;;5097102;28;20598;-38
2022/02/19 08:09:39;;;;;;;7.60;3.50;;;5.90;64.10;;;;;;5097046;28;20028;-36
2022/02/19 08:12:06;;;;;;;5.78;3.15;;;5.90;63.80;;;;;;5096430;28;20055;-37
2022/02/19 08:14:31;;;;;;;7.68;4.25;;;5.90;63.70;;;;;;5096804;28;20075;-37
2022/02/19 08:16:57;;;;;;;7.07;3.80;;;5.90;63.90;;;;;;5091562;28;20021;-36
2022/02/19 08:19:23;;;;;;;7.18;3.15;;;5.90;63.40;;;;;;5102908;28;20112;-37
2022/02/19 08:21:48;;;;;;;11.27;3.60;;;6.00;63.20;;;;;;5115862;28;20293;-36
2022/02/19 08:24:14;;;;;;;7.47;3.13;;;6.10;63.00;;;;;;5116797;28;20063;-36
2022/02/19 08:26:39;;;;;;;10.05;3.47;;;6.10;63.10;;;;;;5116306;28;20156;-37
2022/02/19 08:29:05;;;;;;;10.38;3.60;;;6.10;62.60;;;;;;5116467;28;20069;-43
2022/02/19 08:31:31;;;;;;;5.15;2.90;;;6.20;62.00;;;;;;5116637;27;20447;-37
2022/02/19 08:33:57;;;;;;;7.15;3.50;;;6.20;61.90;;;;;;5116887;28;20020;-43
2022/02/19 08:36:23;;;;;;;7.45;3.10;;;6.20;61.70;;;;;;5116434;28;20026;-43
2022/02/19 08:38:48;;;;;;;7.72;3.50;;;6.30;62.30;;;;;;5116335;28;20024;-38
2022/02/19 08:41:14;;;;;;;5.93;3.13;;;6.30;61.60;;;;;;5116973;28;20055;-43
2022/02/19 08:43:40;;;;;;;14.65;4.13;;;6.40;61.80;;;;;;5116595;28;20040;-40
2022/02/19 08:46:05;;;;;;;7.50;3.63;;;6.50;61.40;;;;;;5116376;28;20036;-43
2022/02/19 08:48:31;;;;;;;7.13;3.72;;;6.60;61.00;;;;;;5116090;28;20042;-37
2022/02/19 08:51:00;;;;;;;7.55;4.60;;;6.70;60.80;;;;;;5116549;28;20039;-37
2022/02/19 08:53:26;;;;;;;6.88;3.58;;;6.80;60.60;;;;;;5115757;28;20044;-43
2022/02/19 08:55:52;;;;;;;7.43;3.03;;;6.80;60.10;;;;;;5116391;28;20418;-37
2022/02/19 08:58:18;;;;;;;5.38;2.78;;;6.90;60.00;;;;;;5115500;28;20026;-42
2022/02/19 09:00:43;;;;;;;9.00;3.72;;;6.90;60.10;;;;;;5116417;28;20046;-37
2022/02/19 09:03:09;;;;;;;7.80;3.35;;;7.00;59.50;;;;;;5115503;28;20341;-43
2022/02/19 09:05:35;;;;;;;6.70;3.85;;;7.00;59.30;;;;;;5116210;28;20032;-43
2022/02/19 09:08:00;;;;;;;7.00;3.08;;;7.00;59.40;;;;;;5115678;28;20404;-41
2022/02/19 09:10:26;;;;;;;5.43;2.95;;;7.00;59.40;;;;;;5114536;28;20042;-42
2022/02/19 09:12:54;;;;;;;5.97;3.30;;;7.10;59.20;;;;;;5115280;28;20030;-44
2022/02/19 09:15:23;;;;;;;5.40;2.80;;;7.20;59.20;;;;;;5116270;28;20074;-37
2022/02/19 09:17:50;;;;;;;6.82;2.95;;;7.20;58.60;;;;;;5115353;28;20042;-37
2022/02/19 09:20:18;;;;;;;6.85;2.97;;;7.20;58.60;;;;;;5116003;28;20036;-43
2022/02/19 09:22:44;;;;;;;8.90;3.58;;;7.20;58.70;;;;;;5115554;28;20070;-44
2022/02/19 09:25:11;;;;;;;6.97;2.97;;;7.20;58.30;;;;;;5115474;28;20062;-37
2022/02/19 09:27:37;;;;;;;9.02;3.80;;;7.20;58.30;;;;;;5115216;28;20039;-37
2022/02/19 09:30:04;;;;;;;7.60;3.63;;;7.30;58.30;;;;;;5115555;28;20467;-43
2022/02/19 09:32:30;;;;;;;13.48;3.45;;;7.30;58.20;;;;;;5115326;28;20023;-37
2022/02/19 09:34:56;;;;;;;8.55;3.40;;;7.40;58.20;;;;;;5115547;28;20042;-37
2022/02/19 09:37:23;;;;;;;7.03;3.63;;;7.40;58.10;;;;;;5115605;28;20034;-42
2022/02/19 09:39:50;;;;;;;9.57;3.70;;;7.40;57.60;;;;;;5115126;28;20085;-37
2022/02/19 09:42:16;;;;;;;8.65;3.25;;;7.40;57.30;;;;;;5114734;28;20032;-36
2022/02/19 09:44:41;;;;;;;7.85;3.17;;;7.40;57.40;;;;;;5116030;28;20583;-43
2022/02/19 09:47:07;;;;;;;6.00;3.00;;;7.50;57.40;;;;;;5115307;28;20027;-39
2022/02/19 09:49:35;;;;;;;8.60;3.55;;;7.50;57.40;;;;;;5115878;28;20358;-43
2022/02/19 09:52:01;;;;;;;7.13;3.92;;;7.50;57.40;;;;;;5114965;28;20090;-37
2022/02/19 09:54:26;;;;;;;6.22;3.30;;;7.50;57.40;;;;;;5115437;28;20059;-37
2022/02/19 09:56:52;;;;;;;6.65;3.03;;;7.50;57.40;;;;;;5114974;28;20457;-44
2022/02/19 09:59:18;;;;;;;8.38;3.47;;;7.50;57.30;;;;;;5115530;28;20465;-37
2022/02/19 10:02:02;;;;;;;5.15;3.28;;;7.50;57.70;;;;;;5114860;28;20381;-37
2022/02/19 10:04:28;;;;;;;7.35;3.35;;;7.60;57.60;;;;;;5115544;28;20373;-36
2022/02/19 10:06:58;;;;;;;7.40;3.78;;;7.60;57.60;;;;;;5115096;28;20027;-43
2022/02/19 10:09:24;;;;;;;18.92;4.45;;;7.60;57.80;;;;;;5115561;28;20046;-37
2022/02/19 10:11:51;;;;;;;9.63;3.35;;;7.60;58.20;;;;;;5114669;28;20036;-37
2022/02/19 10:14:29;;;;;;;8.52;3.40;;;7.70;57.90;;;;;;5115302;28;20488;-44
2022/02/19 10:17:13;;;;;;;8.40;3.85;;;7.70;57.50;;;;;;5114399;28;20020;-36
2022/02/19 10:20:00;;;;;;;8.20;3.63;;;7.70;57.60;;;;;;5115054;28;20322;-44
2022/02/19 10:22:28;;;;;;;8.95;3.40;;;7.70;57.70;;;;;;5094509;28;20036;-42
2022/02/19 10:25:00;;;;;;;6.97;3.35;;;7.70;57.80;;;;;;5094863;28;20127;-36
2022/02/19 10:27:39;;;;;;;6.53;3.70;;;7.70;57.90;;;;;;5094578;28;20032;-37
2022/02/19 10:30:06;;;;;;;7.00;3.03;;;7.60;58.10;;;;;;5094519;28;20048;-43
2022/02/19 10:32:48;;;;;;;4.93;2.92;;;7.50;58.20;;;;;;5093856;28;20062;-44
2022/02/19 10:35:14;;;;;;;5.43;3.20;;;7.50;58.50;;;;;;5094954;28;20028;-37
2022/02/19 10:37:48;;;;;;;10.50;3.35;;;7.50;58.80;;;;;;5094902;28;20028;-38
2022/02/19 10:40:33;;;;;;;8.73;3.75;;;7.50;59.00;;;;;;5095105;28;20028;-44
2022/02/19 10:43:03;;;;;;;7.50;3.53;;;7.50;58.90;;;;;;5094527;28;20040;-37
2022/02/19 10:45:30;;;;;;;5.97;3.30;;;7.50;59.10;;;;;;5094930;28;20400;-45
2022/02/19 10:48:11;;;;;;;12.38;3.40;;;7.50;59.40;;;;;;5094314;28;20422;-37
2022/02/19 10:50:37;;;;;;;6.65;3.42;;;7.50;59.20;;;;;;5094819;28;20449;-37
2022/02/19 10:53:02;;;;;;;7.88;3.28;;;7.50;59.60;;;;;;5096573;28;20032;-43
2022/02/19 10:55:29;;;;;;;10.85;3.45;;;7.50;59.70;;;;;;5095071;28;20391;-43
2022/02/19 10:58:00;;;;;;;6.97;3.53;;;7.50;59.70;;;;;;5097666;28;20056;-42
2022/02/19 11:00:27;;;;;;;6.20;3.17;;;7.60;60.00;;;;;;5098067;28;20024;-48
2022/02/19 11:02:53;;;;;;;9.10;3.53;;;7.60;60.20;;;;;;5097906;28;20043;-43
2022/02/19 11:05:21;;;;;;;7.43;3.53;;;7.60;60.40;;;;;;5097995;28;20106;-37
2022/02/19 11:07:48;;;;;;;6.25;3.65;;;7.50;60.50;;;;;;5097797;28;20032;-38
2022/02/19 11:10:16;;;;;;;5.40;3.55;;;7.50;60.60;;;;;;5098180;28;20020;-39
2022/02/19 11:12:43;;;;;;;7.22;3.17;;;7.50;60.90;;;;;;5097221;28;20027;-40
2022/02/19 11:15:10;;;;;;;11.43;5.80;;;7.50;61.10;;;;;;5097751;28;20036;-40
2022/02/19 11:17:36;;;;;;;6.65;3.33;;;7.50;61.40;;;;;;5097666;28;20059;-40
2022/02/19 11:20:06;;;;;;;11.65;6.63;;;7.50;61.50;;;;;;5097299;28;20040;-39
2022/02/19 11:22:34;;;;;;;11.35;3.90;;;7.50;61.80;;;;;;5097794;28;20317;-40
2022/02/19 11:25:01;;;;;;;6.53;3.53;;;7.50;61.80;;;;;;5097623;28;20320;-39
2022/02/19 11:27:30;;;;;;;8.02;3.97;;;7.40;61.90;;;;;;5097151;28;20035;-39
2022/02/19 11:30:02;;;;;;;8.75;3.90;;;7.40;61.90;;;;;;5097835;28;20081;-38
2022/02/19 11:32:29;;;;;;;6.80;3.85;;;7.40;62.10;;;;;;5097477;28;20024;-37
2022/02/19 11:34:55;;;;;;;6.43;4.15;;;7.50;62.20;;;;;;5097681;28;20107;-40
2022/02/19 11:37:22;;;;;;;6.72;3.95;;;7.50;62.30;;;;;;5096886;28;20024;-38
2022/02/19 11:40:10;;;;;;;10.38;4.97;;;7.50;62.40;;;;;;5096970;28;20035;-40
2022/02/19 11:42:45;;;;;;;6.57;4.18;;;7.50;62.20;;;;;;5096980;28;20039;-40
2022/02/19 11:45:20;;;;;;;7.90;4.60;;;7.60;62.40;;;;;;5097005;28;20024;-40
2022/02/19 11:47:49;;;;;;;10.32;4.63;;;7.60;62.40;;;;;;5097174;28;20107;-38
2022/02/19 11:50:26;;;;;;;5.45;3.45;;;7.60;62.50;;;;;;5096750;28;20123;-37
2022/02/19 11:53:13;;;;;;;9.30;4.45;;;7.70;62.30;;;;;;5096658;28;20032;-40
2022/02/19 11:55:40;;;;;;;7.38;4.32;;;7.70;62.90;;;;;;5095869;28;20039;-40
2022/02/19 11:58:09;;;;;;;8.52;4.05;;;7.70;62.40;;;;;;5097137;28;20060;-40
2022/02/19 12:00:51;;;;;;;11.15;4.35;;;7.80;62.20;;;;;;5097225;28;20032;-40
2022/02/19 12:03:31;;;;;;;8.27;4.95;;;7.80;62.20;;;;;;5097055;28;20072;-37
2022/02/19 12:06:16;;;;;;;7.35;3.67;;;7.80;62.00;;;;;;5096839;28;20036;-40
2022/02/19 12:08:48;;;;;;;12.50;3.83;;;7.80;61.50;;;;;;5094564;28;20325;-38
2022/02/19 12:11:15;;;;;;;8.82;4.18;;;7.90;61.80;;;;;;5096948;28;20036;-38
2022/02/19 12:13:52;;;;;;;7.80;4.22;;;7.90;62.00;;;;;;5096209;28;20443;-39
2022/02/19 12:16:34;;;;;;;7.53;3.58;;;8.00;61.60;;;;;;5096263;28;20032;-38
2022/02/19 12:19:11;;;;;;;7.38;3.78;;;8.00;61.60;;;;;;5096222;28;20024;-38
2022/02/19 12:21:41;;;;;;;7.78;3.28;;;8.10;61.60;;;;;;5096152;28;20447;-40
2022/02/19 12:24:10;;;;;;;9.27;3.75;;;8.10;61.60;;;;;;5096334;28;20472;-37
2022/02/19 12:26:57;;;;;;;9.55;4.63;;;8.20;61.60;;;;;;5096121;28;20494;-37
2022/02/19 12:29:27;;;;;;;10.65;3.97;;;8.20;61.10;;;;;;5094945;28;20501;-38
2022/02/19 12:32:20;;;;;;;7.18;3.72;;;8.30;61.30;;;;;;5095836;28;20393;-38
2022/02/19 12:34:52;;;;;;;9.00;4.28;;;8.40;61.30;;;;;;5093962;28;20036;-38
2022/02/19 12:37:17;;;;;;;5.40;3.33;;;8.50;61.30;;;;;;5095426;28;20016;-41
2022/02/19 12:39:49;;;;;;;8.23;4.18;;;8.50;61.10;;;;;;5096035;28;20119;-37
2022/02/19 12:42:22;;;;;;;8.40;4.00;;;8.60;61.10;;;;;;5110199;28;20073;-37
2022/02/19 12:44:58;;;;;;;7.68;4.07;;;8.60;61.20;;;;;;5116313;28;20028;-38
2022/02/19 12:47:24;;;;;;;8.23;3.83;;;8.70;61.50;;;;;;5115752;28;20030;-40
2022/02/19 12:49:49;;;;;;;13.95;5.78;;;8.70;61.60;;;;;;5115962;28;20032;-40
2022/02/19 12:52:15;;;;;;;7.50;3.83;;;8.70;62.30;;;;;;5115899;28;20036;-40
2022/02/19 12:54:43;;;;;;;8.57;4.03;;;8.70;62.80;;;;;;5116420;28;20027;-40
2022/02/19 12:57:15;;;;;;;9.05;4.25;;;8.70;63.20;;;;;;5115783;28;20028;-40
2022/02/19 12:59:43;;;;;;;8.82;4.25;;;8.60;63.50;;;;;;5116642;28;20085;-38
2022/02/19 13:02:11;;;;;;;8.73;4.20;;;8.70;63.90;;;;;;5115645;28;20028;-40